Time;durP1;ratioP1;P1;durP2;ratioP2;P2;SDS_P1;SDS_P2;PMS_P1;PMS_P2;Temp;Humidity;BMP_temperature;BMP_pressure;BME280_temperature;BME280_humidity;BME280_pressure;Samples;Min_cycle;Max_cycle;Signal;HPM_P1;HPM_P2
2022/06/04 00:01:32;;;;;;;5.78;2.67;;;;;;;14.41;77.79;101987.91;5033459;28;20116;-66
2022/06/04 00:03:58;;;;;;;4.50;2.33;;;;;;;14.41;78.44;101990.56;5015871;28;20033;-66
2022/06/04 00:06:23;;;;;;;6.75;2.50;;;;;;;14.39;79.17;101994.22;5033994;28;20481;-66
2022/06/04 00:08:48;;;;;;;6.47;2.70;;;;;;;14.34;80.55;102001.53;5033601;28;20025;-66
2022/06/04 00:16:42;;;;;;;7.55;2.88;;;;;;;14.22;83.08;102001.13;5034052;28;20114;-67
2022/06/04 00:19:07;;;;;;;4.05;2.58;;;;;;;14.18;83.74;102002.19;5033530;28;20064;-66
2022/06/04 00:21:33;;;;;;;7.65;2.70;;;;;;;14.14;84.39;101994.38;5033220;28;20029;-67
2022/06/04 00:23:58;;;;;;;4.93;2.78;;;;;;;14.11;84.46;102000.69;5032901;28;20051;-67
2022/06/04 00:26:23;;;;;;;4.93;3.05;;;;;;;14.05;84.71;102006.28;5015782;28;20030;-67
2022/06/04 00:28:49;;;;;;;5.88;2.70;;;;;;;13.98;85.07;102013.66;5015725;28;20123;-67
2022/06/04 00:31:16;;;;;;;6.53;3.08;;;;;;;13.92;85.63;102000.56;5032831;28;20025;-66
2022/06/04 00:33:43;;;;;;;7.35;3.50;;;;;;;13.90;86.15;102005.09;5015132;28;20108;-67
2022/06/04 00:36:08;;;;;;;6.82;3.30;;;;;;;13.89;86.22;102000.72;5032618;28;20401;-67
2022/06/04 00:38:34;;;;;;;5.60;3.53;;;;;;;13.89;86.33;102000.72;5032178;28;20056;-67
2022/06/04 00:41:24;;;;;;;5.85;3.38;;;;;;;13.89;86.46;102012.22;5014816;28;20021;-67
2022/06/04 00:44:02;;;;;;;5.82;3.33;;;;;;;13.85;87.28;102004.41;5032503;28;20037;-68
2022/06/04 00:46:40;;;;;;;6.53;3.15;;;;;;;13.86;87.84;102016.78;5032839;28;20033;-67
2022/06/04 00:49:11;;;;;;;6.50;3.33;;;;;;;13.83;87.90;102011.59;5033192;28;20069;-67
2022/06/04 00:51:37;;;;;;;6.20;3.38;;;;;;;13.75;88.58;102011.91;5032422;28;20045;-68
2022/06/04 00:54:03;;;;;;;5.85;3.33;;;;;;;13.71;89.35;102012.97;5032240;28;20116;-67
2022/06/04 00:56:59;;;;;;;7.72;3.40;;;;;;;13.74;89.39;102015.50;5032556;28;20424;-67
2022/06/04 00:59:27;;;;;;;5.95;3.10;;;;;;;13.69;89.46;102005.00;5032752;28;20033;-67
2022/06/04 01:02:14;;;;;;;7.18;3.60;;;;;;;13.67;90.00;102006.00;5032123;28;20021;-67
2022/06/04 01:04:48;;;;;;;5.85;3.20;;;;;;;13.60;90.24;102013.38;5032101;28;20086;-67
2022/06/04 01:07:23;;;;;;;8.02;3.35;;;;;;;13.57;90.72;102006.38;5012864;28;20029;-67
2022/06/04 01:10:00;;;;;;;5.05;3.45;;;;;;;13.57;90.81;102013.50;5011953;28;20038;-67
2022/06/04 01:12:31;;;;;;;5.80;3.10;;;;;;;13.53;90.88;102010.09;5018204;28;20021;-67
2022/06/04 01:15:09;;;;;;;7.00;3.40;;;;;;;13.47;91.11;102005.00;5032263;28;20060;-67
2022/06/04 01:17:35;;;;;;;8.70;3.97;;;;;;;13.44;91.28;102013.97;5031503;28;20026;-66
2022/06/04 01:20:38;;;;;;;7.38;3.35;;;;;;;13.44;91.13;102018.44;5032276;28;20025;-68
2022/06/04 01:23:27;;;;;;;6.28;3.45;;;;;;;13.42;91.33;102022.94;5031977;28;20033;-66
2022/06/04 01:26:17;;;;;;;7.82;3.60;;;;;;;13.41;91.01;102027.41;5031801;28;20449;-67
2022/06/04 01:28:52;;;;;;;8.05;3.65;;;;;;;13.41;90.27;102023.84;5031146;28;20108;-66
2022/06/04 01:31:25;;;;;;;6.30;3.90;;;;;;;13.40;90.55;102032.75;5032240;28;20028;-66
2022/06/04 01:33:59;;;;;;;9.85;3.83;;;;;;;13.41;90.37;102032.72;5031880;28;20040;-67
2022/06/04 01:36:50;;;;;;;6.88;3.55;;;;;;;13.38;90.75;102031.97;5031940;28;20102;-67
2022/06/04 01:39:23;;;;;;;7.80;3.83;;;;;;;13.37;91.47;102043.53;5020936;28;20087;-67
2022/06/04 01:41:54;;;;;;;6.28;3.72;;;;;;;13.41;91.91;102045.13;5032072;28;20048;-67
2022/06/04 01:44:25;;;;;;;5.95;3.75;;;;;;;13.41;91.52;102051.34;5031905;28;20040;-67
2022/06/04 01:46:56;;;;;;;6.47;3.90;;;;;;;13.40;91.75;102057.59;5031264;28;20040;-68
2022/06/04 01:49:42;;;;;;;;;;;;;;;13.42;91.66;102052.19;5031241;28;20140;-66
2022/06/04 01:52:18;;;;;;;7.63;3.67;;;;;;;13.41;92.03;102061.97;5031593;28;20295;-67
2022/06/04 01:54:49;;;;;;;10.65;4.30;;;;;;;13.35;92.86;102059.50;5031389;28;20035;-67
2022/06/04 01:57:29;;;;;;;8.63;3.90;;;;;;;13.36;93.38;102052.38;5013084;28;20373;-67
2022/06/04 02:00:03;;;;;;;7.90;4.35;;;;;;;13.32;94.12;102053.44;5031085;28;20025;-67
2022/06/04 02:02:40;;;;;;;7.57;4.35;;;;;;;13.29;94.37;102051.75;5031634;28;20017;-66
2022/06/04 02:05:12;;;;;;;10.43;4.55;;;;;;;13.28;95.02;102056.19;5031247;28;20033;-67
2022/06/04 02:07:42;;;;;;;7.95;4.47;;;;;;;13.22;95.80;102045.78;5031731;28;20033;-67
2022/06/04 02:10:18;;;;;;;10.10;4.80;;;;;;;13.24;96.31;102059.03;5031208;28;20029;-67
2022/06/04 02:12:45;;;;;;;8.60;4.40;;;;;;;13.25;96.28;102047.47;5014188;28;20040;-67
2022/06/04 02:15:15;;;;;;;7.28;4.55;;;;;;;13.19;96.35;102055.69;5031285;28;20103;-66
2022/06/04 02:17:45;;;;;;;8.70;4.82;;;;;;;13.19;96.77;102050.34;5031558;28;20523;-67
2022/06/04 02:20:13;;;;;;;8.35;5.00;;;;;;;13.13;97.13;102048.78;5013133;28;20029;-66
2022/06/04 02:22:39;;;;;;;11.07;4.88;;;;;;;13.11;97.93;102047.97;5031040;28;20083;-66
2022/06/04 02:25:07;;;;;;;9.35;5.05;;;;;;;13.15;98.01;102051.41;5031560;28;20105;-67
2022/06/04 02:27:33;;;;;;;14.07;5.78;;;;;;;13.18;97.48;102048.63;5031538;28;20517;-66
2022/06/04 02:29:59;;;;;;;9.60;4.95;;;;;;;13.05;98.74;102051.72;5030712;28;20032;-66
2022/06/04 02:32:36;;;;;;;8.57;5.30;;;;;;;13.05;99.04;102053.50;5030929;28;20408;-67
2022/06/04 02:35:10;;;;;;;10.85;5.38;;;;;;;12.99;99.15;102051.06;5031192;28;20029;-66
2022/06/04 02:37:41;;;;;;;8.65;5.20;;;;;;;12.89;100.00;102059.38;5031440;28;20021;-67
2022/06/04 02:40:12;;;;;;;10.68;5.25;;;;;;;12.90;100.00;102058.47;5030408;28;20054;-67
2022/06/04 02:42:50;;;;;;;10.43;5.32;;;;;;;12.88;100.00;102059.44;5030936;28;20031;-67
2022/06/04 02:45:36;;;;;;;9.50;5.20;;;;;;;12.87;100.00;102055.88;5031325;28;20025;-66
2022/06/04 02:48:44;;;;;;;9.77;6.20;;;;;;;12.81;100.00;102050.78;5030927;28;20018;-67
2022/06/04 02:51:23;;;;;;;13.02;6.55;;;;;;;12.74;100.00;102044.81;4969168;28;20031;-67
2022/06/04 02:53:50;;;;;;;9.43;5.55;;;;;;;12.72;100.00;102033.38;4970391;28;20034;-66
2022/06/04 02:56:27;;;;;;;11.45;5.82;;;;;;;12.69;100.00;102033.47;4989636;28;20045;-68
2022/06/04 02:58:57;;;;;;;11.18;5.65;;;;;;;12.66;100.00;102025.63;5031265;28;20436;-67
2022/06/04 03:01:24;;;;;;;7.85;5.40;;;;;;;12.63;100.00;102025.72;5030685;28;20396;-66
2022/06/04 03:03:50;;;;;;;10.25;6.13;;;;;;;12.59;100.00;102021.44;5031415;28;20091;-66
2022/06/04 03:06:33;;;;;;;12.45;5.60;;;;;;;12.57;100.00;102024.16;5013707;28;20092;-67
2022/06/04 03:09:05;;;;;;;10.43;5.43;;;;;;;12.54;100.00;102024.25;5034061;28;20034;-67
2022/06/04 03:11:34;;;;;;;10.25;5.60;;;;;;;12.51;99.57;102007.56;5034083;28;20069;-66
2022/06/04 03:13:59;;;;;;;10.00;5.22;;;;;;;12.47;99.63;102012.09;5034802;28;20029;-66
2022/06/04 03:16:33;;;;;;;8.20;5.40;;;;;;;12.43;99.09;102006.03;5034757;28;20108;-67
2022/06/04 03:18:58;;;;;;;10.05;4.88;;;;;;;12.42;97.87;102009.59;5035126;28;20079;-66
2022/06/04 03:21:24;;;;;;;9.75;5.35;;;;;;;12.44;97.56;102013.06;5016791;28;20017;-66
2022/06/04 03:23:49;;;;;;;6.85;4.72;;;;;;;12.44;96.83;102012.19;5033944;28;20040;-66
2022/06/04 03:26:14;;;;;;;10.07;5.00;;;;;;;12.44;96.73;102017.50;5033511;28;20399;-66
2022/06/04 03:28:40;;;;;;;9.10;5.18;;;;;;;12.38;96.49;102017.69;5016825;28;20038;-67
2022/06/04 03:31:05;;;;;;;9.25;4.63;;;;;;;12.41;96.56;102031.75;5034329;28;20022;-67
2022/06/04 03:33:30;;;;;;;12.15;4.95;;;;;;;12.45;96.03;102020.13;5033308;28;20087;-66
2022/06/04 03:35:56;;;;;;;8.57;4.97;;;;;;;12.53;96.38;102017.22;5034085;28;20087;-67
2022/06/04 03:38:21;;;;;;;8.52;4.70;;;;;;;12.63;95.12;102025.72;5016373;28;20040;-67
2022/06/04 03:40:46;;;;;;;9.20;5.30;;;;;;;12.67;94.63;102021.16;5034104;28;20029;-67
2022/06/04 03:43:11;;;;;;;9.38;4.80;;;;;;;12.65;94.54;102028.31;5033387;28;20216;-67
2022/06/04 03:45:37;;;;;;;8.30;5.35;;;;;;;12.66;94.61;102019.44;5034266;28;20037;-67
2022/06/04 03:48:02;;;;;;;11.40;5.40;;;;;;;12.65;95.18;102033.63;5034123;28;20037;-67
2022/06/04 03:50:29;;;;;;;9.32;4.65;;;;;;;12.70;94.81;102039.66;5033908;28;20489;-66
2022/06/04 03:52:55;;;;;;;9.65;4.82;;;;;;;12.74;94.25;102038.66;5033484;28;20056;-66
2022/06/04 03:55:21;;;;;;;7.63;4.82;;;;;;;12.75;94.98;102037.72;5033606;28;20061;-67
2022/06/04 03:57:48;;;;;;;7.72;4.90;;;;;;;12.74;94.48;102026.22;5033802;28;20036;-66
2022/06/04 04:00:47;;;;;;;7.43;4.75;;;;;;;12.75;93.79;102016.47;5033774;28;20021;-67
2022/06/04 04:03:17;;;;;;;10.23;4.82;;;;;;;12.73;93.76;102013.84;5019960;28;20073;-66
2022/06/04 04:05:52;;;;;;;11.02;4.68;;;;;;;12.70;94.04;102021.03;5033315;28;20041;-67
2022/06/04 04:08:19;;;;;;;9.70;5.45;;;;;;;12.71;94.72;102023.69;5015376;28;20476;-67
2022/06/04 04:10:46;;;;;;;11.40;5.07;;;;;;;12.75;94.93;102027.97;5033649;28;20022;-66
2022/06/04 04:13:13;;;;;;;10.05;4.68;;;;;;;12.82;95.50;102025.09;5033426;28;20029;-67
2022/06/04 04:15:39;;;;;;;9.70;5.35;;;;;;;12.87;96.03;102020.47;5015243;28;20481;-67
2022/06/04 04:18:05;;;;;;;9.80;5.30;;;;;;;12.88;96.16;102025.72;5040225;28;20033;-66
2022/06/04 04:20:34;;;;;;;8.57;5.15;;;;;;;12.90;95.86;102025.66;5019559;28;20030;-67
2022/06/04 04:23:00;;;;;;;9.52;5.10;;;;;;;12.94;96.10;102019.31;5013475;28;20044;-67
2022/06/04 04:25:27;;;;;;;12.20;4.63;;;;;;;13.04;95.58;102012.75;5024901;28;20026;-67
2022/06/04 04:27:53;;;;;;;11.55;4.65;;;;;;;12.99;96.35;102014.69;5033337;28;20036;-68
2022/06/04 04:30:25;;;;;;;13.98;5.15;;;;;;;12.93;97.17;102036.22;5033464;28;20033;-67
2022/06/04 04:32:51;;;;;;;12.52;5.10;;;;;;;12.99;97.32;102035.13;5033679;28;20041;-68
2022/06/04 04:35:24;;;;;;;13.02;5.38;;;;;;;12.95;97.99;102039.66;5032450;28;20445;-67
2022/06/04 04:37:49;;;;;;;11.38;5.10;;;;;;;12.97;98.32;102036.94;5024394;28;20057;-68
2022/06/04 04:40:17;;;;;;;10.80;4.93;;;;;;;12.97;99.18;102040.50;5030086;28;20489;-68
2022/06/04 04:42:44;;;;;;;8.95;5.00;;;;;;;13.03;99.36;102031.41;5031633;28;20037;-68
2022/06/04 04:45:10;;;;;;;10.45;5.15;;;;;;;13.06;99.86;102037.50;5029490;28;20033;-68
2022/06/04 04:47:38;;;;;;;9.95;5.35;;;;;;;13.17;100.00;102030.91;5036284;28;20041;-68
2022/06/04 04:50:07;;;;;;;8.82;5.28;;;;;;;13.22;100.00;102036.94;5032873;28;20350;-69
2022/06/04 04:52:33;;;;;;;11.32;5.00;;;;;;;13.32;99.69;102038.31;5032871;28;20057;-68
2022/06/04 04:54:58;;;;;;;8.02;4.80;;;;;;;13.52;99.55;102039.44;5032874;28;20087;-68
2022/06/04 04:57:24;;;;;;;12.98;5.20;;;;;;;13.68;98.96;102045.91;5032114;28;20091;-68
2022/06/04 04:59:49;;;;;;;8.70;4.82;;;;;;;13.77;97.28;102044.66;5033076;28;20034;-68
2022/06/04 05:02:15;;;;;;;7.95;4.47;;;;;;;13.80;96.05;102046.31;5032011;28;20071;-67
2022/06/04 05:04:40;;;;;;;9.68;4.90;;;;;;;13.72;95.21;102057.28;5014770;28;20025;-67
2022/06/04 05:07:06;;;;;;;8.05;4.63;;;;;;;13.69;95.38;102054.75;5032281;28;20025;-68
2022/06/04 05:09:31;;;;;;;9.80;5.00;;;;;;;13.68;95.70;102050.34;5032286;28;20029;-67
2022/06/04 05:11:57;;;;;;;8.43;4.80;;;;;;;13.82;95.54;102045.34;5032124;28;20056;-67
2022/06/04 05:14:22;;;;;;;8.50;4.95;;;;;;;13.90;94.43;102047.69;5032320;28;20037;-67
2022/06/04 05:16:48;;;;;;;8.57;4.43;;;;;;;13.82;94.30;102055.13;5032423;28;20041;-68
2022/06/04 05:19:14;;;;;;;8.88;4.70;;;;;;;13.92;92.65;102052.03;5032284;28;20029;-67
2022/06/04 05:21:48;;;;;;;9.85;4.68;;;;;;;13.89;92.20;102048.66;5013252;28;20033;-67
2022/06/04 05:24:17;;;;;;;6.95;4.60;;;;;;;13.87;92.35;102039.84;5014049;28;20032;-67
2022/06/04 05:26:42;;;;;;;9.82;4.65;;;;;;;14.01;91.79;102036.63;5032425;28;20163;-67
2022/06/04 05:29:07;;;;;;;9.68;4.95;;;;;;;14.18;91.37;102042.16;5031208;28;20036;-67
2022/06/04 05:31:33;;;;;;;9.60;4.70;;;;;;;14.31;89.79;102038.97;5031907;28;20022;-67
2022/06/04 05:33:58;;;;;;;8.45;4.15;;;;;;;14.42;89.36;102042.03;5031858;28;20044;-67
2022/06/04 05:36:24;;;;;;;7.70;4.43;;;;;;;14.51;88.17;102032.81;5032177;28;20144;-69
2022/06/04 05:38:49;;;;;;;10.35;4.30;;;;;;;14.45;88.51;102041.06;5031820;28;20041;-67
2022/06/04 05:41:14;;;;;;;9.60;4.10;;;;;;;14.50;87.49;102025.72;5014409;28;20061;-67
2022/06/04 05:43:40;;;;;;;11.77;4.53;;;;;;;14.63;88.16;102034.06;5031506;28;20037;-68
2022/06/04 05:46:08;;;;;;;10.48;4.45;;;;;;;14.68;87.29;102037.44;5031619;28;20029;-67
2022/06/04 05:48:39;;;;;;;11.02;4.45;;;;;;;14.75;86.37;102031.78;5029006;28;20029;-67
2022/06/04 05:51:05;;;;;;;8.25;4.82;;;;;;;14.62;87.20;102043.03;5031853;28;20125;-67
2022/06/04 05:53:31;;;;;;;10.90;4.75;;;;;;;14.79;87.54;102042.31;5031820;28;20504;-67
2022/06/04 05:55:56;;;;;;;10.90;4.68;;;;;;;14.75;87.86;102044.25;5031667;28;20075;-68
2022/06/04 05:58:22;;;;;;;11.32;4.32;;;;;;;14.96;86.65;102047.78;5014052;28;20112;-68
2022/06/04 06:00:47;;;;;;;8.85;4.68;;;;;;;14.96;86.52;102055.78;5032104;28;20124;-68
2022/06/04 06:03:13;;;;;;;14.02;4.93;;;;;;;14.99;86.58;102060.13;5013258;28;20043;-67
2022/06/04 06:05:43;;;;;;;12.63;4.82;;;;;;;15.06;88.13;102056.22;5029517;28;20034;-67
2022/06/04 06:08:09;;;;;;;10.20;4.47;;;;;;;15.37;86.30;102062.84;5026908;28;20022;-66
2022/06/04 06:10:42;;;;;;;10.15;4.47;;;;;;;15.49;85.19;102061.44;5029759;28;20760;-67
2022/06/04 06:13:08;;;;;;;7.57;4.15;;;;;;;15.34;85.35;102057.66;5013065;28;20040;-67
2022/06/04 06:15:35;;;;;;;10.32;4.60;;;;;;;15.30;85.24;102070.28;5028667;28;20029;-67
2022/06/04 06:18:00;;;;;;;15.43;4.75;;;;;;;15.34;85.38;102069.19;5006780;28;20056;-68
2022/06/04 06:20:26;;;;;;;10.63;4.50;;;;;;;15.35;85.57;102086.09;5027884;28;20021;-67
2022/06/04 06:22:51;;;;;;;9.82;4.53;;;;;;;15.21;85.50;102081.38;5031201;28;20485;-67
2022/06/04 06:25:17;;;;;;;11.02;4.70;;;;;;;15.06;86.60;102085.59;5038730;28;20088;-66
2022/06/04 06:27:43;;;;;;;10.25;4.95;;;;;;;14.88;88.60;102089.91;5012418;28;20103;-66
2022/06/04 06:30:09;;;;;;;10.98;4.85;;;;;;;14.93;87.71;102093.25;5028521;28;20183;-67
2022/06/04 06:32:35;;;;;;;9.05;4.80;;;;;;;14.73;88.11;102096.75;5013077;28;20033;-67
2022/06/04 06:35:01;;;;;;;8.73;4.55;;;;;;;14.72;89.44;102095.91;5013509;28;20033;-66
2022/06/04 06:37:27;;;;;;;7.38;4.53;;;;;;;14.75;89.11;102100.25;5035320;28;20116;-66
2022/06/04 06:39:53;;;;;;;8.60;4.68;;;;;;;14.89;88.18;102107.66;5030512;28;20200;-68
2022/06/04 06:42:18;;;;;;;7.32;4.70;;;;;;;14.93;88.13;102109.25;5025232;28;20033;-67
2022/06/04 06:44:44;;;;;;;10.07;4.18;;;;;;;15.05;87.00;102121.19;5034650;28;20029;-68
2022/06/04 06:47:10;;;;;;;8.65;4.57;;;;;;;15.05;87.17;102116.75;5034510;28;20037;-66
2022/06/04 06:49:36;;;;;;;9.85;4.70;;;;;;;15.20;87.39;102122.34;5034831;28;20489;-67
2022/06/04 06:52:02;;;;;;;10.88;4.47;;;;;;;15.40;86.42;102129.47;5034586;28;20037;-68
2022/06/04 06:54:34;;;;;;;11.98;4.57;;;;;;;15.54;84.50;102131.50;5034206;28;20056;-68
2022/06/04 06:57:01;;;;;;;9.57;4.45;;;;;;;15.48;85.66;102132.63;5034674;28;20029;-68
2022/06/04 06:59:27;;;;;;;10.10;4.47;;;;;;;15.62;85.28;102125.81;5034835;28;20022;-67
2022/06/04 07:01:55;;;;;;;12.13;4.63;;;;;;;15.52;85.19;102122.69;5034303;28;20491;-68
2022/06/04 07:04:25;;;;;;;8.38;4.70;;;;;;;15.48;86.20;102113.94;5034626;28;20025;-66
2022/06/04 07:06:53;;;;;;;8.65;4.30;;;;;;;15.55;86.90;102122.56;5034335;28;20033;-67
2022/06/04 07:09:21;;;;;;;7.97;4.28;;;;;;;15.67;85.43;102111.31;5016265;28;20469;-67
2022/06/04 07:11:47;;;;;;;8.45;4.28;;;;;;;15.81;84.97;102121.41;5016914;28;20018;-67
2022/06/04 07:14:13;;;;;;;10.13;4.55;;;;;;;15.81;84.96;102131.19;5034519;28;20043;-66
2022/06/04 07:16:39;;;;;;;9.65;4.28;;;;;;;16.00;84.37;102132.09;5016220;28;20049;-68
2022/06/04 07:19:05;;;;;;;8.70;4.40;;;;;;;16.21;82.91;102130.22;5033773;28;20064;-66
2022/06/04 07:21:31;;;;;;;9.13;4.22;;;;;;;16.51;83.12;102124.31;5033361;28;20065;-67
2022/06/04 07:23:57;;;;;;;6.65;3.83;;;;;;;16.74;80.27;102135.66;5033319;28;20053;-68
2022/06/04 07:26:23;;;;;;;7.40;3.83;;;;;;;17.07;79.65;102131.38;5033122;28;20095;-67
2022/06/04 07:28:49;;;;;;;9.43;4.28;;;;;;;17.18;79.66;102124.50;5033866;28;20029;-67
2022/06/04 07:31:15;;;;;;;8.90;4.40;;;;;;;17.34;78.62;102129.03;5016455;28;20029;-67
2022/06/04 07:33:45;;;;;;;8.48;4.30;;;;;;;17.40;76.20;102127.88;5033481;28;20033;-67
2022/06/04 07:36:16;;;;;;;6.85;4.15;;;;;;;17.24;76.84;102131.38;5033721;28;20496;-67
2022/06/04 07:38:43;;;;;;;10.05;4.32;;;;;;;17.13;78.51;102120.34;5027479;28;20578;-67
2022/06/04 07:41:15;;;;;;;9.73;4.03;;;;;;;17.37;78.22;102131.59;5029954;28;20037;-68
2022/06/04 07:43:41;;;;;;;8.30;4.55;;;;;;;17.55;76.83;102121.69;5028560;28;20469;-68
2022/06/04 07:46:06;;;;;;;8.48;4.00;;;;;;;17.81;75.73;102114.94;5011312;28;20116;-67
2022/06/04 07:48:31;;;;;;;7.05;3.88;;;;;;;17.68;75.57;102111.16;5033276;28;20397;-67
2022/06/04 07:50:57;;;;;;;8.98;4.30;;;;;;;17.45;77.12;102110.59;5033285;28;20021;-67
2022/06/04 07:53:22;;;;;;;7.05;4.15;;;;;;;17.87;76.62;102112.84;5032634;28;20091;-67
2022/06/04 07:55:48;;;;;;;7.82;3.95;;;;;;;18.14;75.53;102116.69;5031466;28;20386;-68
2022/06/04 07:58:13;;;;;;;10.20;4.15;;;;;;;18.08;74.59;102106.31;5015359;28;20112;-68
2022/06/04 08:00:38;;;;;;;10.15;4.28;;;;;;;17.74;74.40;102105.47;5036270;28;20432;-67
2022/06/04 08:03:07;;;;;;;9.38;4.28;;;;;;;17.04;77.65;102105.63;5027842;28;20030;-68
2022/06/04 08:05:32;;;;;;;8.93;4.18;;;;;;;16.88;78.57;102103.72;5029306;28;20029;-67
2022/06/04 08:07:58;;;;;;;9.05;4.43;;;;;;;16.75;80.25;102105.28;5044682;28;20025;-68
2022/06/04 08:10:23;;;;;;;8.93;4.40;;;;;;;16.52;80.95;102111.78;5031862;28;20014;-67
2022/06/04 08:12:54;;;;;;;7.55;4.30;;;;;;;16.26;81.92;102116.59;5042143;28;20083;-67
2022/06/04 08:15:19;;;;;;;10.10;4.97;;;;;;;16.02;82.97;102122.22;5033006;28;20037;-67
2022/06/04 08:17:47;;;;;;;8.85;4.93;;;;;;;15.81;83.20;102128.53;5025373;28;20463;-67
2022/06/04 08:20:13;;;;;;;9.43;4.30;;;;;;;15.83;84.12;102137.34;5032702;28;20033;-68
2022/06/04 08:22:38;;;;;;;7.80;4.90;;;;;;;15.75;84.07;102129.66;5033428;28;20437;-67
2022/06/04 08:25:04;;;;;;;9.52;5.07;;;;;;;15.60;85.18;102130.34;5014429;28;20044;-67
2022/06/04 08:27:30;;;;;;;10.45;4.65;;;;;;;15.61;85.08;102132.09;5037406;28;20444;-68
2022/06/04 08:29:55;;;;;;;6.95;4.15;;;;;;;15.78;85.12;102137.53;5032327;28;20071;-67
2022/06/04 08:32:21;;;;;;;10.45;4.90;;;;;;;15.83;85.53;102137.34;5032845;28;20435;-67
2022/06/04 08:34:46;;;;;;;12.25;5.20;;;;;;;15.82;85.33;102143.63;5015279;28;20472;-68
2022/06/04 08:37:12;;;;;;;7.47;4.57;;;;;;;15.92;84.36;102149.41;5032434;28;20735;-68
2022/06/04 08:39:37;;;;;;;9.60;4.00;;;;;;;16.02;84.33;102138.25;4993270;28;20382;-67
2022/06/04 08:42:09;;;;;;;9.00;4.93;;;;;;;16.16;83.92;102144.72;5032724;28;20044;-68
2022/06/04 08:44:39;;;;;;;9.32;4.63;;;;;;;16.11;84.53;102142.25;5015232;28;20429;-67
2022/06/04 08:47:05;;;;;;;7.70;4.32;;;;;;;16.14;83.71;102141.25;5028122;28;20032;-67
2022/06/04 08:49:39;;;;;;;8.60;4.53;;;;;;;16.15;83.88;102140.31;5030240;28;20040;-67
2022/06/04 08:52:21;;;;;;;8.70;4.68;;;;;;;16.21;84.44;102142.69;5028828;28;20030;-68
2022/06/04 08:57:46;;;;;;;9.80;4.88;;;;;;;16.01;83.53;102149.84;5030264;28;20167;-67
2022/06/04 09:00:24;;;;;;;8.40;4.57;;;;;;;16.00;83.80;102150.78;5032516;28;20425;-68
2022/06/04 09:02:57;;;;;;;10.50;5.05;;;;;;;15.96;84.26;102151.00;5032279;28;20021;-67
2022/06/04 09:05:57;;;;;;;8.05;4.32;;;;;;;16.06;84.05;102154.97;5014338;28;20104;-68
2022/06/04 09:08:49;;;;;;;7.32;4.03;;;;;;;16.18;84.55;102153.53;5032055;28;20105;-68
2022/06/04 09:11:20;;;;;;;10.43;4.78;;;;;;;16.32;85.99;102153.75;5014193;28;20021;-66
2022/06/04 09:14:09;;;;;;;8.95;4.38;;;;;;;16.42;82.84;102148.81;5032218;28;20507;-67
2022/06/04 09:16:39;;;;;;;11.68;4.57;;;;;;;16.31;83.19;102157.34;5031214;28;20065;-68
2022/06/04 09:19:13;;;;;;;10.60;5.10;;;;;;;16.35;83.74;102161.59;5014219;28;20113;-68
2022/06/04 09:21:39;;;;;;;9.02;4.85;;;;;;;16.63;82.94;102154.91;5031906;28;20056;-68
2022/06/04 09:24:05;;;;;;;8.82;4.50;;;;;;;16.77;82.21;102146.19;5014318;28;20120;-67
2022/06/04 09:26:44;;;;;;;11.38;4.90;;;;;;;16.90;81.41;102145.59;5013136;28;20191;-68
2022/06/04 09:29:37;;;;;;;10.25;4.50;;;;;;;17.15;79.59;102148.75;5030638;28;20032;-65
2022/06/04 09:32:08;;;;;;;7.75;4.50;;;;;;;17.35;78.87;102144.16;5031394;28;20034;-67
2022/06/04 09:34:42;;;;;;;8.80;4.07;;;;;;;17.62;79.07;102159.72;5014092;28;20396;-67
2022/06/04 09:37:09;;;;;;;9.95;4.40;;;;;;;18.24;76.78;102151.88;5026429;28;20500;-67
2022/06/04 09:39:38;;;;;;;9.88;4.30;;;;;;;18.84;74.38;102148.41;5031409;28;20042;-67
2022/06/04 09:42:05;;;;;;;8.38;4.35;;;;;;;19.26;73.16;102155.84;5031642;28;20033;-65
2022/06/04 09:44:36;;;;;;;6.65;3.85;;;;;;;20.02;71.26;102160.13;5031872;28;20231;-66
2022/06/04 09:47:19;;;;;;;8.57;4.20;;;;;;;20.54;66.70;102158.56;5031036;28;20032;-65
2022/06/04 09:49:53;;;;;;;8.38;4.60;;;;;;;20.61;67.49;102149.13;5030474;28;20033;-66
2022/06/04 09:52:22;;;;;;;12.57;4.88;;;;;;;19.93;67.64;102147.25;5039612;28;20104;-65
2022/06/04 09:54:53;;;;;;;8.07;4.57;;;;;;;19.45;68.74;102158.25;5035611;28;20025;-66
2022/06/04 09:57:26;;;;;;;9.00;4.65;;;;;;;19.32;69.83;102140.22;5031098;28;20021;-67
2022/06/04 09:59:56;;;;;;;8.85;4.72;;;;;;;19.19;71.91;102141.94;5028196;28;20108;-65
2022/06/04 10:02:22;;;;;;;6.97;4.45;;;;;;;19.29;70.63;102156.53;5030948;28;20489;-65
2022/06/04 10:04:49;;;;;;;6.97;4.43;;;;;;;19.10;70.42;102155.91;5012845;28;20082;-66
2022/06/04 10:07:19;;;;;;;8.25;4.50;;;;;;;19.09;71.65;102151.50;5030998;28;20078;-65
2022/06/04 10:09:58;;;;;;;8.73;4.40;;;;;;;19.33;72.38;102151.84;5028481;28;20033;-66
2022/06/04 10:15:30;;;;;;;8.35;4.80;;;;;;;19.49;68.85;102154.47;5031311;28;20076;-66
2022/06/04 10:18:16;;;;;;;9.52;4.57;;;;;;;19.48;69.21;102150.88;5030245;28;20044;-66
2022/06/04 10:20:50;;;;;;;7.40;4.45;;;;;;;19.36;69.84;102153.47;5037550;28;20515;-64
2022/06/04 10:23:16;;;;;;;8.43;4.88;;;;;;;19.17;71.54;102146.53;5014851;28;20029;-67
2022/06/04 10:26:04;;;;;;;8.27;5.10;;;;;;;19.19;71.11;102149.13;5030278;28;20500;-67
2022/06/04 10:28:53;;;;;;;6.82;4.60;;;;;;;18.88;71.19;102149.09;5030150;28;20040;-66
2022/06/04 10:31:42;;;;;;;8.45;4.68;;;;;;;18.62;73.16;102151.50;5031266;28;20091;-66
2022/06/04 10:34:18;;;;;;;7.32;5.07;;;;;;;18.39;74.85;102149.28;4983395;28;20412;-66
2022/06/04 10:37:02;;;;;;;7.25;4.53;;;;;;;18.11;75.49;102146.34;5030980;28;20030;-67
2022/06/04 10:39:52;;;;;;;7.05;4.68;;;;;;;18.06;75.82;102147.56;5030374;28;20489;-67
2022/06/04 10:42:42;;;;;;;9.02;5.05;;;;;;;17.97;75.57;102132.88;5030413;28;20056;-66
2022/06/04 10:45:16;;;;;;;8.57;5.13;;;;;;;17.80;76.28;102139.97;5026062;28;20052;-66
2022/06/04 10:48:06;;;;;;;12.40;5.07;;;;;;;17.82;77.66;102151.47;5031379;28;20308;-66
2022/06/04 10:53:51;;;;;;;8.88;5.03;;;;;;;17.87;76.70;102145.00;5021438;28;20099;-67
2022/06/04 10:56:23;;;;;;;7.43;5.25;;;;;;;17.66;79.05;102142.53;5025615;28;20397;-67
2022/06/04 10:59:02;;;;;;;9.73;5.63;;;;;;;17.50;81.92;102131.78;5030743;28;20022;-67
2022/06/04 11:01:35;;;;;;;8.95;5.35;;;;;;;17.50;81.14;102142.50;5030558;28;20022;-66
2022/06/04 11:04:19;;;;;;;8.18;5.47;;;;;;;17.46;81.66;102138.25;5012929;28;20469;-65
2022/06/04 11:07:26;;;;;;;11.27;5.82;;;;;;;17.38;81.72;102143.16;5030477;28;20396;-67
2022/06/04 11:09:52;;;;;;;10.38;5.15;;;;;;;17.44;81.63;102150.84;5029727;28;20378;-67
2022/06/04 11:12:36;;;;;;;10.27;5.90;;;;;;;17.41;81.64;102146.53;5013377;28;20034;-66
2022/06/04 11:15:09;;;;;;;11.02;6.40;;;;;;;17.49;80.73;102144.31;5030810;28;20100;-67
2022/06/04 11:17:50;;;;;;;9.80;5.35;;;;;;;17.61;82.05;102145.47;5029971;28;20033;-67
2022/06/04 11:20:24;;;;;;;9.10;5.50;;;;;;;17.52;81.38;102145.97;5030911;28;20026;-68
2022/06/04 11:23:17;;;;;;;12.07;5.18;;;;;;;17.55;83.80;102150.31;5031510;28;20527;-68
2022/06/04 11:25:47;;;;;;;9.27;5.68;;;;;;;17.58;83.71;102150.97;5031650;28;20151;-67
2022/06/04 11:28:19;;;;;;;10.15;5.72;;;;;;;17.48;84.44;102152.41;5036902;28;20104;-67
2022/06/04 11:31:07;;;;;;;9.88;6.07;;;;;;;17.25;86.51;102150.97;4997420;28;20021;-65
2022/06/04 11:33:54;;;;;;;9.68;5.75;;;;;;;17.08;89.67;102155.38;5039931;28;20033;-67
2022/06/04 11:36:35;;;;;;;8.02;5.45;;;;;;;17.18;87.49;102150.41;5033874;28;20029;-67
2022/06/04 11:39:06;;;;;;;11.48;6.38;;;;;;;17.13;88.19;102153.31;5025664;28;20060;-68
2022/06/04 11:41:50;;;;;;;10.13;6.03;;;;;;;17.24;88.88;102160.81;5043610;28;20029;-68
2022/06/04 11:44:34;;;;;;;10.30;6.72;;;;;;;17.39;88.34;102155.59;5033880;28;20025;-68
2022/06/04 11:47:17;;;;;;;13.32;6.15;;;;;;;17.47;85.93;102151.56;5033751;28;20029;-68
2022/06/04 11:50:20;;;;;;;7.38;5.68;;;;;;;17.52;86.84;102162.03;5032887;28;20032;-67
2022/06/04 11:53:11;;;;;;;13.73;6.25;;;;;;;17.51;86.82;102171.03;5018991;28;20150;-67
2022/06/04 11:55:45;;;;;;;;;;;;;;;17.63;86.63;102164.13;5038060;28;20104;-67